Time;durP1;ratioP1;P1;durP2;ratioP2;P2;SDS_P1;SDS_P2;PMS_P1;PMS_P2;Temp;Humidity;BMP_temperature;BMP_pressure;BME280_temperature;BME280_humidity;BME280_pressure;Samples;Min_cycle;Max_cycle;Signal;HPM_P1;HPM_P2
2022/05/13 00:01:40;;;;;;;5.07;4.33;;;16.80;93.70;;;;;;5009148;28;21058;-54
2022/05/13 00:04:06;;;;;;;10.90;5.80;;;16.60;94.00;;;;;;5011474;28;20484;-54
2022/05/13 00:06:33;;;;;;;7.13;5.27;;;16.40;94.30;;;;;;5018509;28;20489;-54
2022/05/13 00:09:00;;;;;;;6.30;4.47;;;16.40;94.50;;;;;;5020622;28;20516;-54
2022/05/13 00:11:26;;;;;;;12.63;5.00;;;16.40;94.80;;;;;;5018224;28;20488;-54
2022/05/13 00:13:55;;;;;;;7.47;5.10;;;16.30;94.90;;;;;;5016755;28;21052;-53
2022/05/13 00:16:22;;;;;;;6.13;5.20;;;16.40;95.10;;;;;;5020939;28;20488;-53
2022/05/13 00:18:49;;;;;;;15.27;4.57;;;16.40;95.10;;;;;;5021159;28;20473;-54
2022/05/13 00:21:15;;;;;;;11.77;5.70;;;16.40;95.00;;;;;;5018686;28;20477;-53
2022/05/13 00:23:42;;;;;;;9.83;5.67;;;16.50;94.90;;;;;;5015591;28;20492;-54
2022/05/13 00:26:09;;;;;;;6.10;5.50;;;16.50;94.90;;;;;;5019321;28;20534;-54
2022/05/13 00:28:35;;;;;;;7.30;4.60;;;16.50;95.10;;;;;;5018656;28;20488;-53
2022/05/13 00:31:04;;;;;;;6.40;5.00;;;16.40;95.20;;;;;;5019133;28;20484;-54
2022/05/13 00:33:32;;;;;;;12.23;6.60;;;16.40;95.40;;;;;;5019960;28;20485;-53
2022/05/13 00:35:58;;;;;;;13.27;5.57;;;16.40;95.70;;;;;;5020218;28;20469;-53
2022/05/13 00:38:26;;;;;;;6.80;5.47;;;16.30;95.80;;;;;;5018649;28;20487;-54
2022/05/13 00:40:53;;;;;;;6.30;4.63;;;16.40;95.90;;;;;;5020498;28;20560;-54
2022/05/13 00:43:38;;;;;;;8.43;5.13;;;16.40;95.50;;;;;;5020363;28;20484;-54
2022/05/13 00:46:07;;;;;;;11.50;4.43;;;16.50;95.30;;;;;;5019495;28;20895;-54
2022/05/13 00:48:33;;;;;;;12.30;5.07;;;16.50;95.20;;;;;;5021452;28;20495;-54
2022/05/13 00:51:00;;;;;;;9.37;5.33;;;16.60;94.90;;;;;;5019786;28;20489;-53
2022/05/13 00:53:28;;;;;;;11.00;5.40;;;16.60;94.90;;;;;;5015158;28;20488;-54
2022/05/13 00:55:55;;;;;;;8.97;4.10;;;16.50;95.40;;;;;;5011551;28;20929;-54
2022/05/13 00:58:23;;;;;;;13.60;6.13;;;16.50;95.40;;;;;;5020138;28;20852;-54
2022/05/13 01:00:50;;;;;;;11.07;4.80;;;16.60;95.20;;;;;;5018015;28;20488;-53
2022/05/13 01:03:18;;;;;;;13.77;5.90;;;16.60;95.10;;;;;;5015426;28;20480;-54
2022/05/13 01:05:50;;;;;;;9.00;5.27;;;16.60;95.00;;;;;;5019278;28;20833;-54
2022/05/13 01:08:17;;;;;;;10.17;4.23;;;16.40;95.50;;;;;;5010498;28;20891;-54
2022/05/13 01:10:46;;;;;;;5.70;4.70;;;16.40;95.70;;;;;;5019473;28;20484;-54
2022/05/13 01:13:18;;;;;;;6.03;4.57;;;16.30;95.60;;;;;;5021205;28;21180;-54
2022/05/13 01:15:47;;;;;;;9.37;5.53;;;16.20;95.70;;;;;;5018417;28;20760;-54
2022/05/13 01:18:23;;;;;;;11.87;5.30;;;16.10;96.20;;;;;;4989246;28;20637;-54
2022/05/13 01:20:51;;;;;;;5.73;5.00;;;16.20;96.20;;;;;;4996724;28;20495;-54
2022/05/13 01:23:21;;;;;;;8.03;5.10;;;16.20;96.20;;;;;;5016657;28;20477;-54
2022/05/13 01:25:52;;;;;;;10.07;4.97;;;16.30;95.90;;;;;;5011426;28;20509;-54
2022/05/13 01:28:22;;;;;;;6.13;4.87;;;16.40;95.70;;;;;;5007928;28;20484;-54
2022/05/13 01:30:52;;;;;;;15.77;5.70;;;16.50;95.70;;;;;;5017917;28;20917;-55
2022/05/13 01:33:19;;;;;;;10.43;5.37;;;16.40;95.70;;;;;;5016278;28;20583;-54
2022/05/13 01:35:48;;;;;;;5.97;4.73;;;16.30;96.10;;;;;;5006471;28;20817;-54
2022/05/13 01:38:16;;;;;;;7.70;5.20;;;16.30;96.20;;;;;;5019212;28;20895;-54
2022/05/13 01:40:44;;;;;;;6.77;5.20;;;16.40;96.00;;;;;;5018220;28;20747;-54
2022/05/13 01:43:11;;;;;;;9.90;4.80;;;16.50;95.60;;;;;;5019301;28;20487;-54
2022/05/13 01:45:38;;;;;;;5.73;4.97;;;16.50;95.50;;;;;;5006737;28;20484;-54
2022/05/13 01:48:07;;;;;;;8.00;5.70;;;16.40;95.40;;;;;;5011725;28;20483;-54
2022/05/13 01:50:35;;;;;;;12.37;5.30;;;16.40;95.80;;;;;;5027923;28;20812;-54
2022/05/13 01:53:02;;;;;;;9.97;5.53;;;16.40;95.90;;;;;;5017451;28;20788;-54
2022/05/13 01:55:28;;;;;;;13.30;5.10;;;16.30;96.10;;;;;;5017822;28;20488;-54
2022/05/13 01:57:56;;;;;;;10.10;6.17;;;16.20;96.30;;;;;;5017747;28;20482;-55
2022/05/13 02:00:23;;;;;;;7.57;4.93;;;16.20;96.60;;;;;;5020455;28;20481;-55
2022/05/13 02:05:35;;;;;;;11.23;4.83;;;16.20;96.50;;;;;;5013500;28;21098;-54
2022/05/13 02:08:02;;;;;;;6.30;5.00;;;16.20;96.30;;;;;;5006590;28;20527;-55
2022/05/13 02:10:29;;;;;;;11.53;5.70;;;16.30;96.00;;;;;;5015800;28;20543;-54
2022/05/13 02:12:58;;;;;;;8.63;4.80;;;16.40;96.30;;;;;;5018326;28;20571;-54
2022/05/13 02:15:24;;;;;;;10.97;6.17;;;16.50;96.40;;;;;;5008806;28;20484;-54
2022/05/13 02:17:51;;;;;;;6.80;4.73;;;16.60;96.00;;;;;;5013064;28;20485;-54
2022/05/13 02:20:18;;;;;;;6.27;4.10;;;16.70;95.80;;;;;;5017605;28;20499;-54
2022/05/13 02:22:45;;;;;;;8.83;5.37;;;16.70;95.60;;;;;;5007227;28;20574;-54
2022/05/13 02:25:12;;;;;;;11.20;5.00;;;16.80;95.50;;;;;;5015355;28;20530;-54
2022/05/13 02:27:38;;;;;;;6.60;4.40;;;16.80;95.60;;;;;;5009256;28;20485;-54
2022/05/13 02:30:09;;;;;;;10.00;4.60;;;16.90;95.30;;;;;;5014540;28;20538;-54
2022/05/13 02:32:35;;;;;;;9.90;5.50;;;16.90;95.30;;;;;;5006943;28;20481;-54
2022/05/13 02:35:03;;;;;;;8.90;4.70;;;16.90;95.10;;;;;;5006335;28;20542;-54
2022/05/13 02:37:29;;;;;;;9.90;4.30;;;17.00;95.20;;;;;;5018215;28;21044;-54
2022/05/13 02:39:56;;;;;;;6.03;5.20;;;16.90;95.60;;;;;;5017271;28;21026;-54
2022/05/13 02:42:23;;;;;;;7.57;5.23;;;16.80;95.70;;;;;;5013691;28;20517;-54
2022/05/13 02:44:50;;;;;;;8.10;5.70;;;16.70;95.50;;;;;;5013047;28;20490;-54
2022/05/13 02:47:18;;;;;;;13.50;5.40;;;16.60;95.80;;;;;;5018718;28;20492;-54
2022/05/13 02:49:45;;;;;;;6.80;5.30;;;16.60;96.10;;;;;;5016805;28;20497;-54
2022/05/13 02:52:12;;;;;;;8.30;4.80;;;16.60;96.20;;;;;;5017990;28;21034;-54
2022/05/13 02:54:39;;;;;;;7.73;4.90;;;16.60;96.10;;;;;;5016086;28;20492;-54
2022/05/13 02:57:06;;;;;;;8.47;5.03;;;16.70;95.80;;;;;;5016767;28;20489;-54
2022/05/13 02:59:33;;;;;;;8.40;4.87;;;16.90;95.50;;;;;;5016649;28;20483;-54
2022/05/13 03:02:00;;;;;;;8.50;5.27;;;17.00;95.50;;;;;;5018144;28;20489;-54
2022/05/13 03:04:28;;;;;;;6.90;4.57;;;17.00;95.30;;;;;;5013616;28;20500;-54
2022/05/13 03:06:55;;;;;;;12.10;4.47;;;17.10;95.30;;;;;;5014730;28;20473;-54
2022/05/13 03:09:21;;;;;;;6.70;5.00;;;17.10;95.80;;;;;;5006776;28;20497;-54
2022/05/13 03:11:48;;;;;;;14.50;5.40;;;17.10;95.50;;;;;;5015294;28;21029;-54
2022/05/13 03:14:15;;;;;;;7.67;4.70;;;17.10;95.10;;;;;;5011386;28;21141;-54
2022/05/13 03:16:42;;;;;;;10.50;5.30;;;17.10;94.60;;;;;;5013501;28;20583;-54
2022/05/13 03:19:08;;;;;;;8.53;4.50;;;17.20;94.20;;;;;;5017841;28;20477;-54
2022/05/13 03:21:36;;;;;;;7.57;4.30;;;17.20;94.00;;;;;;5012473;28;20485;-54
2022/05/13 03:24:03;;;;;;;4.90;3.93;;;17.20;93.90;;;;;;4980113;28;20523;-55
2022/05/13 03:26:30;;;;;;;6.70;4.80;;;17.30;94.00;;;;;;5014546;28;20497;-55
2022/05/13 03:28:57;;;;;;;8.60;5.00;;;17.30;94.20;;;;;;5016353;28;20472;-55
2022/05/13 03:31:23;;;;;;;6.97;4.50;;;17.20;93.90;;;;;;5014718;28;20526;-56
2022/05/13 03:33:50;;;;;;;8.80;5.20;;;17.30;93.90;;;;;;5000395;28;20499;-55
2022/05/13 03:36:17;;;;;;;9.47;4.50;;;17.40;93.70;;;;;;4994003;28;21009;-55
2022/05/13 03:38:45;;;;;;;10.53;4.70;;;17.50;93.60;;;;;;5007390;28;20515;-55
2022/05/13 03:41:12;;;;;;;18.43;4.67;;;17.50;93.40;;;;;;5005855;28;20481;-55
2022/05/13 03:43:39;;;;;;;9.20;4.80;;;17.50;93.20;;;;;;5016616;28;20485;-55
2022/05/13 03:46:06;;;;;;;9.70;3.87;;;17.40;93.20;;;;;;4980793;28;20495;-55
2022/05/13 03:48:32;;;;;;;13.63;5.17;;;17.40;92.90;;;;;;4978390;28;20993;-55
2022/05/13 03:50:59;;;;;;;7.73;4.57;;;17.40;93.00;;;;;;5017291;28;21190;-55
2022/05/13 03:53:26;;;;;;;9.70;3.87;;;17.50;93.10;;;;;;5011604;28;20481;-55
2022/05/13 03:55:54;;;;;;;6.90;4.13;;;17.60;92.90;;;;;;5000288;28;20481;-55
2022/05/13 03:58:21;;;;;;;6.63;4.43;;;17.60;92.80;;;;;;5014315;28;20526;-55
2022/05/13 04:00:49;;;;;;;8.07;4.17;;;17.60;92.40;;;;;;5010151;28;20481;-55
2022/05/13 04:03:18;;;;;;;7.47;4.47;;;17.60;92.30;;;;;;5004161;28;20517;-55
2022/05/13 04:11:15;;;;;;;12.17;5.17;;;17.40;92.60;;;;;;5011273;28;20571;-55
2022/05/13 04:16:27;;;;;;;14.83;4.27;;;17.30;93.00;;;;;;4984244;28;20543;-55
2022/05/13 04:18:54;;;;;;;9.00;4.30;;;17.40;93.00;;;;;;5003065;28;20497;-56
2022/05/13 04:21:23;;;;;;;8.30;4.37;;;17.30;93.20;;;;;;5014750;28;20542;-55
2022/05/13 04:23:52;;;;;;;9.87;4.57;;;17.30;93.00;;;;;;5003618;28;20535;-55
2022/05/13 04:26:20;;;;;;;12.20;4.90;;;17.20;92.70;;;;;;5014939;28;20527;-55
2022/05/13 04:28:48;;;;;;;7.43;4.70;;;17.10;93.10;;;;;;5014337;28;20468;-55
2022/05/13 04:31:17;;;;;;;11.33;5.40;;;17.10;93.00;;;;;;5018040;28;20484;-55
2022/05/13 04:33:44;;;;;;;7.70;5.33;;;17.10;92.80;;;;;;5010676;28;20952;-55
2022/05/13 04:36:11;;;;;;;6.43;4.80;;;17.10;92.80;;;;;;5011024;28;20491;-55
2022/05/13 04:38:38;;;;;;;13.83;5.70;;;17.20;92.80;;;;;;5001869;28;20846;-55
2022/05/13 04:43:47;;;;;;;6.70;5.10;;;17.30;92.20;;;;;;5002702;28;21009;-55
2022/05/13 04:46:14;;;;;;;7.07;5.53;;;17.30;92.20;;;;;;5018292;28;20985;-55
2022/05/13 04:48:40;;;;;;;9.80;4.40;;;17.10;92.20;;;;;;5020271;28;20526;-55
2022/05/13 04:51:07;;;;;;;10.03;4.83;;;17.00;92.30;;;;;;5011056;28;20724;-55
2022/05/13 04:53:36;;;;;;;17.93;4.60;;;16.90;92.30;;;;;;4999240;28;21016;-55
2022/05/13 04:56:05;;;;;;;13.33;5.40;;;16.90;92.40;;;;;;5017227;28;20484;-55
2022/05/13 04:58:32;;;;;;;5.10;4.57;;;16.90;92.20;;;;;;5019755;28;21101;-55
2022/05/13 05:01:01;;;;;;;10.20;5.07;;;17.00;92.20;;;;;;5018860;28;20481;-55
2022/05/13 05:03:30;;;;;;;12.83;6.30;;;17.00;92.10;;;;;;5017978;28;20489;-55
2022/05/13 05:05:57;;;;;;;11.70;4.87;;;17.00;92.00;;;;;;5014301;28;20473;-55
2022/05/13 05:08:25;;;;;;;11.70;5.23;;;17.00;91.90;;;;;;5020013;28;20714;-55
2022/05/13 05:10:52;;;;;;;10.13;5.00;;;17.00;92.10;;;;;;5019977;28;20481;-55
2022/05/13 05:13:20;;;;;;;9.63;5.30;;;16.90;92.10;;;;;;5007085;28;20485;-55
2022/05/13 05:15:47;;;;;;;11.60;5.90;;;16.90;92.20;;;;;;5020083;28;20522;-56
2022/05/13 05:18:15;;;;;;;8.30;5.23;;;17.00;91.90;;;;;;5021021;28;20476;-55
2022/05/13 05:20:43;;;;;;;5.17;4.43;;;17.10;91.80;;;;;;5018751;28;20489;-55
2022/05/13 05:23:13;;;;;;;15.63;5.13;;;17.10;91.90;;;;;;5018833;28;21081;-55
2022/05/13 05:25:40;;;;;;;7.40;5.27;;;17.30;91.90;;;;;;5019118;28;20921;-55
2022/05/13 05:28:07;;;;;;;4.53;4.00;;;17.40;91.50;;;;;;5019377;28;20473;-55
2022/05/13 05:30:34;;;;;;;11.63;4.43;;;17.50;91.60;;;;;;5024212;28;20472;-55
2022/05/13 05:33:01;;;;;;;21.27;5.50;;;17.70;92.00;;;;;;5018458;28;20485;-55
2022/05/13 05:35:29;;;;;;;12.20;5.10;;;17.80;91.50;;;;;;5015428;28;21673;-56
2022/05/13 05:37:56;;;;;;;7.63;3.90;;;17.90;91.10;;;;;;5018927;28;20572;-55
2022/05/13 05:40:23;;;;;;;8.03;4.10;;;18.00;90.70;;;;;;5015786;28;20485;-55
2022/05/13 05:42:50;;;;;;;4.80;3.50;;;18.10;90.10;;;;;;5010434;28;20990;-54
2022/05/13 05:45:18;;;;;;;17.07;6.30;;;18.10;90.10;;;;;;5000433;28;20480;-55
2022/05/13 05:47:45;;;;;;;11.90;4.30;;;18.10;90.00;;;;;;5019169;28;20488;-55
2022/05/13 05:50:15;;;;;;;7.90;4.43;;;18.00;89.30;;;;;;5012211;28;20485;-54
2022/05/13 05:52:43;;;;;;;10.33;4.10;;;18.00;89.00;;;;;;5000306;28;22073;-54
2022/05/13 05:57:58;;;;;;;7.47;3.70;;;18.00;88.90;;;;;;4997579;28;20508;-55
2022/05/13 06:00:25;;;;;;;6.97;3.83;;;18.10;88.40;;;;;;4999547;28;20982;-54
2022/05/13 06:02:52;;;;;;;8.93;3.60;;;18.10;89.20;;;;;;5001097;28;20528;-54
2022/05/13 06:05:19;;;;;;;8.37;4.10;;;18.10;86.90;;;;;;4999045;28;20473;-54
2022/05/13 06:07:47;;;;;;;3.87;3.40;;;18.10;87.10;;;;;;4998571;28;20501;-54
2022/05/13 06:10:14;;;;;;;5.77;3.43;;;18.10;87.10;;;;;;4998922;28;20485;-55
2022/05/13 06:12:41;;;;;;;4.90;3.80;;;18.00;87.10;;;;;;4997568;28;20608;-55
2022/05/13 06:15:09;;;;;;;6.53;3.63;;;18.00;87.10;;;;;;4998097;28;20501;-55
2022/05/13 06:17:42;;;;;;;5.40;3.33;;;17.90;87.40;;;;;;4998505;28;20809;-55
2022/05/13 06:20:09;;;;;;;5.70;3.97;;;18.10;88.20;;;;;;4998098;28;20481;-56
2022/05/13 06:22:36;;;;;;;4.43;3.37;;;18.10;87.30;;;;;;4988159;28;20497;-56
2022/05/13 06:25:05;;;;;;;8.63;3.00;;;18.20;86.70;;;;;;4991211;28;20865;-56
2022/05/13 06:27:32;;;;;;;6.90;3.70;;;18.20;85.60;;;;;;5000346;28;20933;-56
2022/05/13 06:29:58;;;;;;;11.33;3.30;;;18.40;85.90;;;;;;4997442;28;20557;-56
2022/05/13 06:32:25;;;;;;;8.80;2.93;;;18.30;85.50;;;;;;4997846;28;20805;-55
2022/05/13 06:34:52;;;;;;;8.70;3.60;;;18.50;86.60;;;;;;4996603;28;20849;-56
2022/05/13 06:37:18;;;;;;;8.10;3.73;;;18.60;85.90;;;;;;4987460;28;20489;-57
2022/05/13 06:39:45;;;;;;;5.90;3.37;;;18.80;85.60;;;;;;4988184;28;21007;-55
2022/05/13 06:42:13;;;;;;;7.60;3.27;;;18.70;83.50;;;;;;4986809;28;20490;-56
2022/05/13 06:44:40;;;;;;;3.30;2.77;;;19.00;84.90;;;;;;4992652;28;20474;-56
2022/05/13 06:47:07;;;;;;;8.23;3.13;;;19.10;83.40;;;;;;4989766;28;20488;-57
2022/05/13 06:49:34;;;;;;;6.33;2.70;;;19.20;82.20;;;;;;4994655;28;20477;-56
2022/05/13 06:52:02;;;;;;;13.10;3.47;;;19.30;80.80;;;;;;5011207;28;20470;-55
2022/05/13 06:54:29;;;;;;;6.13;2.33;;;19.40;80.50;;;;;;4998361;28;20481;-57
2022/05/13 06:56:56;;;;;;;8.00;3.40;;;19.50;80.70;;;;;;4996494;28;21004;-56
2022/05/13 06:59:24;;;;;;;6.10;2.93;;;19.60;80.90;;;;;;4974674;28;20500;-55
2022/05/13 07:01:51;;;;;;;11.43;3.67;;;19.50;78.90;;;;;;4979411;28;20488;-55
2022/05/13 07:04:17;;;;;;;11.23;3.50;;;19.40;79.30;;;;;;4977019;28;21106;-54
2022/05/13 07:06:44;;;;;;;9.67;3.00;;;19.20;79.10;;;;;;4994373;28;20487;-55
2022/05/13 07:09:11;;;;;;;8.90;2.37;;;19.10;78.60;;;;;;4998995;28;21088;-54
2022/05/13 07:11:38;;;;;;;7.60;2.50;;;19.00;79.80;;;;;;5004516;28;20766;-55
2022/05/13 07:14:05;;;;;;;5.87;2.60;;;19.10;79.50;;;;;;4997176;28;20479;-56
2022/05/13 07:16:33;;;;;;;11.90;3.67;;;19.10;78.60;;;;;;4994000;28;20485;-55
2022/05/13 07:19:00;;;;;;;12.13;2.03;;;19.10;78.90;;;;;;4982136;28;20489;-54
2022/05/13 07:21:27;;;;;;;8.40;2.47;;;19.10;77.70;;;;;;4994210;28;20472;-54
2022/05/13 07:23:53;;;;;;;7.83;2.63;;;19.20;78.40;;;;;;5006949;28;20471;-55
2022/05/13 07:26:20;;;;;;;4.40;2.60;;;19.20;79.00;;;;;;4997918;28;21033;-55
2022/05/13 07:28:47;;;;;;;6.60;2.30;;;19.20;78.90;;;;;;4997620;28;20705;-55
2022/05/13 07:31:13;;;;;;;6.27;2.53;;;19.30;77.20;;;;;;5002090;28;20661;-54
2022/05/13 07:33:41;;;;;;;7.87;2.53;;;19.40;78.10;;;;;;5001301;28;20492;-56
2022/05/13 07:36:08;;;;;;;8.13;2.40;;;19.50;76.50;;;;;;4997427;28;20499;-54
2022/05/13 07:38:35;;;;;;;8.17;2.80;;;19.60;77.60;;;;;;4995721;28;20477;-54
2022/05/13 07:41:16;;;;;;;5.77;2.40;;;19.90;77.90;;;;;;4997057;28;20478;-54
2022/05/13 07:43:43;;;;;;;5.23;2.10;;;20.10;77.50;;;;;;4985986;28;20642;-55
2022/05/13 07:46:10;;;;;;;6.63;2.60;;;20.50;77.40;;;;;;5005758;28;20489;-55
2022/05/13 07:48:38;;;;;;;5.83;3.67;;;20.80;78.00;;;;;;4998784;28;20482;-54
2022/05/13 07:51:06;;;;;;;7.37;2.13;;;20.90;76.90;;;;;;5004871;28;20857;-54
2022/05/13 07:53:33;;;;;;;7.13;2.00;;;20.90;75.10;;;;;;4998268;28;20545;-54
2022/05/13 07:56:00;;;;;;;5.77;2.77;;;20.90;76.50;;;;;;5005330;28;20481;-54
2022/05/13 07:58:27;;;;;;;6.53;2.70;;;20.80;75.10;;;;;;5003420;28;20483;-55
2022/05/13 08:00:54;;;;;;;7.00;2.43;;;20.60;74.60;;;;;;4998537;28;20485;-55
2022/05/13 08:03:22;;;;;;;7.10;2.63;;;20.50;74.10;;;;;;5004158;28;20509;-54
2022/05/13 08:05:51;;;;;;;10.43;2.70;;;20.60;74.90;;;;;;5000324;28;20484;-54
2022/05/13 08:08:21;;;;;;;5.63;2.70;;;20.90;74.70;;;;;;5004215;28;20924;-55
2022/05/13 08:10:51;;;;;;;6.73;2.87;;;21.10;75.30;;;;;;4998220;28;20485;-54
2022/05/13 08:13:18;;;;;;;8.50;2.93;;;21.30;74.00;;;;;;4996078;28;20537;-55
2022/05/13 08:15:46;;;;;;;12.23;2.53;;;21.10;72.70;;;;;;4995981;28;20886;-54
2022/05/13 08:18:13;;;;;;;7.03;3.13;;;21.30;74.20;;;;;;5005797;28;20525;-53
2022/05/13 08:20:44;;;;;;;5.00;2.30;;;21.40;72.70;;;;;;5001635;28;20769;-54
2022/05/13 08:23:15;;;;;;;12.00;3.43;;;21.50;71.30;;;;;;4993295;28;20496;-54
2022/05/13 08:25:47;;;;;;;5.23;3.10;;;21.70;74.00;;;;;;4982855;28;20996;-54
2022/05/13 08:28:19;;;;;;;16.10;3.87;;;21.80;73.70;;;;;;4976008;28;20484;-54
2022/05/13 08:30:46;;;;;;;6.13;3.20;;;21.90;73.50;;;;;;4998428;28;20483;-54
2022/05/13 08:33:13;;;;;;;10.60;3.37;;;22.00;72.30;;;;;;4992300;28;20525;-55
2022/05/13 08:35:44;;;;;;;9.20;2.97;;;22.20;72.80;;;;;;5005479;28;20749;-54
2022/05/13 08:38:11;;;;;;;11.00;3.03;;;22.10;69.80;;;;;;4977110;28;20690;-54
2022/05/13 08:41:02;;;;;;;7.67;2.70;;;22.30;71.70;;;;;;4998874;28;20464;-53
2022/05/13 08:43:35;;;;;;;10.03;2.90;;;22.40;74.40;;;;;;4993005;28;20477;-56
2022/05/13 08:46:10;;;;;;;7.97;2.63;;;22.30;69.30;;;;;;5003054;28;20479;-54
2022/05/13 08:48:47;;;;;;;3.97;2.97;;;22.40;71.00;;;;;;4997668;28;20508;-55
2022/05/13 08:51:15;;;;;;;5.50;2.83;;;22.20;70.80;;;;;;4995033;28;20475;-56
2022/05/13 08:53:49;;;;;;;9.23;2.93;;;22.20;72.20;;;;;;5007564;28;20480;-55
2022/05/13 08:56:25;;;;;;;10.03;2.50;;;22.20;71.00;;;;;;4995445;28;20477;-55
2022/05/13 08:58:57;;;;;;;4.00;1.77;;;22.30;70.40;;;;;;5002580;28;20601;-55
2022/05/13 09:01:28;;;;;;;7.60;2.33;;;22.40;70.80;;;;;;4993957;28;21013;-56
2022/05/13 09:04:00;;;;;;;6.73;2.50;;;22.60;69.90;;;;;;5000439;28;21018;-55
2022/05/13 09:06:37;;;;;;;4.87;2.83;;;22.50;68.60;;;;;;5002898;28;20493;-55
2022/05/13 09:09:08;;;;;;;7.00;2.23;;;22.60;69.20;;;;;;4998927;28;21013;-54
2022/05/13 09:11:42;;;;;;;4.20;2.70;;;22.60;69.90;;;;;;5002461;28;20487;-54
2022/05/13 09:14:19;;;;;;;6.00;2.30;;;22.50;69.50;;;;;;5008740;28;20478;-54
2022/05/13 09:16:54;;;;;;;3.57;1.67;;;22.70;70.50;;;;;;4991440;28;20498;-54
2022/05/13 09:19:29;;;;;;;8.27;2.53;;;22.70;68.90;;;;;;4992874;28;20487;-56
2022/05/13 09:22:00;;;;;;;9.50;1.93;;;22.50;69.00;;;;;;4992507;28;20468;-56
2022/05/13 09:24:30;;;;;;;6.50;2.47;;;22.50;71.70;;;;;;5006113;28;20600;-54
2022/05/13 09:27:02;;;;;;;6.97;2.20;;;22.50;68.60;;;;;;4998396;28;20488;-58
2022/05/13 09:29:40;;;;;;;6.67;2.07;;;22.50;67.70;;;;;;4995573;28;20477;-56
2022/05/13 09:32:13;;;;;;;3.60;2.10;;;22.50;67.60;;;;;;5008313;28;20492;-55
2022/05/13 09:34:48;;;;;;;4.80;1.93;;;22.40;66.60;;;;;;5007592;28;20900;-55
2022/05/13 09:37:20;;;;;;;3.13;2.10;;;22.50;68.10;;;;;;4999005;28;21145;-55
2022/05/13 09:39:48;;;;;;;4.70;1.70;;;22.40;67.20;;;;;;4994240;28;20484;-56
2022/05/13 09:42:26;;;;;;;8.13;1.77;;;22.50;68.50;;;;;;5000872;28;20476;-55
2022/05/13 09:45:21;;;;;;;3.90;1.70;;;22.50;68.10;;;;;;5000618;28;20481;-55
2022/05/13 09:48:02;;;;;;;2.97;2.00;;;22.70;69.30;;;;;;5004359;28;20482;-55
2022/05/13 09:50:32;;;;;;;4.60;1.80;;;22.80;65.80;;;;;;4996273;28;20487;-55
2022/05/13 09:53:24;;;;;;;8.87;2.27;;;22.80;68.10;;;;;;4998763;28;20623;-56
2022/05/13 09:55:54;;;;;;;7.27;2.10;;;22.90;66.50;;;;;;5000956;28;20552;-56
2022/05/13 09:58:24;;;;;;;4.60;1.60;;;22.80;66.30;;;;;;5006492;28;20491;-55
2022/05/13 10:00:54;;;;;;;8.63;1.60;;;22.90;70.10;;;;;;4997366;28;20493;-55
2022/05/13 10:03:22;;;;;;;5.47;1.87;;;22.80;65.60;;;;;;5002293;28;20496;-55
2022/05/13 10:05:54;;;;;;;4.80;1.53;;;22.80;67.60;;;;;;4998854;28;20496;-56
2022/05/13 10:08:27;;;;;;;5.07;1.80;;;22.90;67.50;;;;;;5004428;28;21009;-56
2022/05/13 10:13:59;;;;;;;5.10;1.50;;;22.80;66.80;;;;;;5000914;28;20475;-56
2022/05/13 10:16:32;;;;;;;7.40;1.80;;;22.80;64.60;;;;;;4998033;28;20496;-56
2022/05/13 10:19:05;;;;;;;7.80;1.97;;;22.80;62.20;;;;;;4998896;28;20557;-53
2022/05/13 10:21:38;;;;;;;3.00;1.60;;;22.70;64.30;;;;;;4993209;28;20477;-55
2022/05/13 10:24:23;;;;;;;2.40;1.30;;;22.70;65.20;;;;;;4999024;28;20731;-56
2022/05/13 10:26:51;;;;;;;4.17;1.70;;;22.70;64.70;;;;;;5005244;28;20480;-55
2022/05/13 10:29:25;;;;;;;4.07;1.80;;;22.70;63.90;;;;;;4995837;28;20480;-56
2022/05/13 10:31:54;;;;;;;7.77;1.77;;;22.80;66.40;;;;;;4995084;28;20481;-55
2022/05/13 10:34:26;;;;;;;3.10;1.77;;;22.80;65.60;;;;;;5001033;28;20480;-55
2022/05/13 10:37:04;;;;;;;3.27;1.53;;;22.80;65.10;;;;;;4993177;28;21959;-54
2022/05/13 10:39:44;;;;;;;5.50;1.70;;;23.00;67.40;;;;;;4997896;28;21010;-56
2022/05/13 10:42:20;;;;;;;5.30;2.10;;;23.00;65.70;;;;;;4994784;28;20484;-55
2022/05/13 10:44:56;;;;;;;10.43;2.07;;;23.10;65.20;;;;;;4993070;28;20488;-52
2022/05/13 10:47:29;;;;;;;5.60;1.97;;;23.20;65.40;;;;;;4994469;28;20484;-54
2022/05/13 10:49:55;;;;;;;4.40;1.67;;;23.30;66.30;;;;;;4995115;28;20488;-56
2022/05/13 10:52:42;;;;;;;2.70;1.67;;;23.20;60.30;;;;;;4997409;28;20480;-55
2022/05/13 10:55:15;;;;;;;2.20;1.40;;;23.30;65.50;;;;;;5005067;28;20478;-55
2022/05/13 10:57:51;;;;;;;5.57;1.83;;;23.20;62.90;;;;;;4983776;28;21062;-55
2022/05/13 11:00:23;;;;;;;4.87;2.03;;;23.30;65.40;;;;;;4993616;28;20571;-55
2022/05/13 11:03:14;;;;;;;5.60;1.50;;;23.40;64.20;;;;;;4987802;28;21022;-55
2022/05/13 11:05:49;;;;;;;4.00;1.40;;;23.40;63.90;;;;;;4982391;28;20499;-55
2022/05/13 11:08:21;;;;;;;4.40;1.87;;;23.70;65.00;;;;;;4990146;28;20503;-56
2022/05/13 11:10:57;;;;;;;8.50;1.90;;;23.90;63.60;;;;;;4992565;28;20477;-55
2022/05/13 11:13:48;;;;;;;2.83;1.57;;;24.10;63.60;;;;;;4996158;28;20551;-56
2022/05/13 11:16:23;;;;;;;5.67;1.43;;;24.20;63.10;;;;;;4992835;28;20876;-53
2022/05/13 11:19:00;;;;;;;4.40;1.47;;;24.40;63.30;;;;;;4991775;28;20481;-56
2022/05/13 11:21:37;;;;;;;6.27;1.97;;;24.40;64.60;;;;;;4990051;28;21004;-56
2022/05/13 11:27:14;;;;;;;7.60;2.27;;;24.40;59.50;;;;;;4962443;28;20505;-54
2022/05/13 11:29:47;;;;;;;3.83;2.13;;;24.40;63.00;;;;;;4994990;28;21270;-55
2022/05/13 11:32:26;;;;;;;4.87;1.67;;;24.40;59.50;;;;;;4996670;28;20478;-55
2022/05/13 11:35:09;;;;;;;5.20;1.70;;;24.30;62.60;;;;;;4995923;28;20480;-54
2022/05/13 11:37:41;;;;;;;3.90;1.90;;;24.30;63.90;;;;;;4993025;28;20481;-55
2022/05/13 11:40:20;;;;;;;7.50;1.87;;;24.40;62.10;;;;;;5007082;28;20476;-55
2022/05/13 11:45:59;;;;;;;3.90;1.27;;;24.50;59.90;;;;;;5003485;28;20527;-55
2022/05/13 11:48:30;;;;;;;4.57;1.60;;;24.60;59.80;;;;;;5003900;28;20882;-55
2022/05/13 11:51:04;;;;;;;6.53;2.53;;;24.50;58.00;;;;;;4996381;28;20485;-55
2022/05/13 11:53:52;;;;;;;4.13;1.50;;;24.60;61.50;;;;;;4995718;28;21413;-56
2022/05/13 11:56:32;;;;;;;2.50;1.20;;;24.40;60.20;;;;;;4988185;28;20468;-55
2022/05/13 11:59:01;;;;;;;3.17;1.50;;;24.20;60.10;;;;;;5000548;28;20864;-55
2022/05/13 12:01:54;;;;;;;4.90;1.57;;;24.40;58.50;;;;;;4996108;28;20862;-54
2022/05/13 12:04:31;;;;;;;7.07;1.30;;;24.50;59.30;;;;;;4983265;28;20619;-55
2022/05/13 12:07:00;;;;;;;5.27;1.47;;;24.50;58.90;;;;;;5004860;28;20480;-55
2022/05/13 12:09:31;;;;;;;6.07;1.80;;;24.50;58.00;;;;;;5001630;28;20551;-55
2022/05/13 12:12:07;;;;;;;5.00;1.47;;;24.60;62.10;;;;;;4981221;28;20489;-55
2022/05/13 12:14:44;;;;;;;5.83;1.37;;;24.70;58.80;;;;;;5010052;28;20475;-55
2022/05/13 12:17:17;;;;;;;2.33;1.13;;;24.90;59.00;;;;;;4998089;28;20558;-55
2022/05/13 12:19:54;;;;;;;2.43;1.43;;;24.90;57.30;;;;;;5004297;28;20491;-54
2022/05/13 12:22:37;;;;;;;3.20;1.00;;;24.90;58.90;;;;;;5001229;28;20674;-54
2022/05/13 12:25:07;;;;;;;5.77;1.40;;;24.90;59.40;;;;;;4997803;28;20654;-55
2022/05/13 12:27:44;;;;;;;4.60;2.07;;;25.00;60.60;;;;;;4994376;28;20492;-55
2022/05/13 12:30:31;;;;;;;3.30;1.43;;;25.00;60.50;;;;;;5009155;28;20479;-55
2022/05/13 12:33:18;;;;;;;4.97;1.53;;;24.60;57.80;;;;;;4997153;28;20526;-55
2022/05/13 12:39:03;;;;;;;2.33;0.93;;;24.60;60.10;;;;;;4987944;28;20846;-55
2022/05/13 12:41:46;;;;;;;3.57;1.37;;;24.40;54.60;;;;;;5006390;28;20484;-55
2022/05/13 12:44:22;;;;;;;3.57;1.30;;;24.60;57.40;;;;;;4993237;28;20550;-55
2022/05/13 12:46:51;;;;;;;2.67;1.47;;;24.80;57.80;;;;;;4998956;28;21078;-55
2022/05/13 12:49:22;;;;;;;4.00;1.80;;;24.80;57.70;;;;;;4997038;28;20805;-55
2022/05/13 12:52:01;;;;;;;4.37;1.43;;;25.00;56.60;;;;;;4994328;28;21370;-55
2022/05/13 12:54:34;;;;;;;4.53;1.93;;;25.00;57.70;;;;;;5000553;28;20487;-55
2022/05/13 12:57:13;;;;;;;5.33;2.07;;;24.90;57.20;;;;;;4993023;28;21019;-55
2022/05/13 12:59:43;;;;;;;3.50;1.47;;;25.10;59.40;;;;;;4997165;28;21240;-54
2022/05/13 13:02:11;;;;;;;7.03;1.60;;;25.20;58.50;;;;;;4998070;28;21011;-55
2022/05/13 13:04:53;;;;;;;4.77;1.60;;;25.50;59.60;;;;;;4990985;28;20488;-55
2022/05/13 13:07:28;;;;;;;11.10;1.30;;;25.50;57.50;;;;;;5001181;28;20468;-54
2022/05/13 13:09:55;;;;;;;3.00;1.30;;;25.30;58.70;;;;;;4997914;28;20481;-55
2022/05/13 13:12:30;;;;;;;6.87;1.70;;;25.30;57.60;;;;;;5001129;28;21241;-55
2022/05/13 13:15:03;;;;;;;3.90;1.30;;;25.10;58.30;;;;;;4997011;28;20516;-55
2022/05/13 13:17:36;;;;;;;6.80;1.50;;;25.00;59.10;;;;;;4997453;28;20503;-55
2022/05/13 13:20:05;;;;;;;3.53;1.00;;;25.10;57.60;;;;;;4995488;28;20716;-55
2022/05/13 13:22:38;;;;;;;7.00;1.30;;;25.10;56.90;;;;;;4996880;28;20482;-55
2022/05/13 13:25:18;;;;;;;5.50;1.23;;;24.90;56.70;;;;;;4994263;28;20477;-55
2022/05/13 13:27:46;;;;;;;4.43;1.30;;;24.90;56.60;;;;;;4999248;28;20737;-55
2022/05/13 13:30:18;;;;;;;3.13;1.20;;;24.70;58.20;;;;;;5003600;28;20639;-55